Yuuseimaru — JD3934 — position and weather

sailwx.info

Track history (hours):
 
Tides and Currents Weather Stations Pressure Air Temp Water Temp Dewpoint Dewpoint Depression Visibility Wind Speed Wind Dir Waves Ship Positions

Yuuseimaru

Last reported at 2018-Jan-20 01:01 UTC. Time now 2018-Jan-20 05:21 UTC.
Position N 41°25' E 141°26'.

Length 74 m; draft 4.2 m.

Type: Cargo ship. MMSI: 431006982.

Date/timePositionNaut miles runAvg speedWind from/ knotsBaromVisibWave heightAir tempDewpointWater temp
2018-Jan-20 01:01N 41°25' E 141°26'0 0.0
2018-Jan-20 00:55N 41°25' E 141°26'0 0.0
2018-Jan-20 00:28N 41°25' E 141°26'0 0.0
2018-Jan-19 23:58N 41°25' E 141°26'0 0.0
2018-Jan-19 23:28N 41°25' E 141°26'0 0.0
2018-Jan-19 22:55N 41°25' E 141°26'0 0.4
2018-Jan-19 22:30N 41°25' E 141°26'1 1.3
2018-Jan-19 21:55N 41°25' E 141°25'0 0.0
2018-Jan-19 21:28N 41°25' E 141°25'0 0.0
2018-Jan-19 20:58N 41°25' E 141°25'0 0.0
2018-Jan-19 20:16N 41°25' E 141°25'0 0.0
2018-Jan-19 19:49N 41°25' E 141°25'0 0.0
2018-Jan-19 19:28N 41°25' E 141°25'2 3.6
2018-Jan-19 19:00N 41°26' E 141°23'613.3
2018-Jan-19 18:30N 41°28' E 141°15'714.5
2018-Jan-19 18:01N 41°31' E 141°06'714.0
2018-Jan-19 17:29N 41°35' E 140°57'613.2
2018-Jan-19 17:00N 41°33' E 140°49'714.3
2018-Jan-19 16:30N 41°29' E 140°42'714.3
2018-Jan-19 16:00N 41°24' E 140°34'714.3
2018-Jan-19 15:29N 41°20' E 140°26'2314.0
2018-Jan-19 13:51N 41°02' E 140°08'512.7
2018-Jan-19 13:28N 40°57' E 140°05'  
2018-Jan-12 13:55N 41°16' E 140°18'3 7.3
2018-Jan-12 13:30N 41°18' E 140°22'4 8.5
2018-Jan-12 13:00N 41°20' E 140°26'5 9.2
2018-Jan-12 12:30N 41°23' E 140°31'5 9.8
2018-Jan-12 12:00N 41°26' E 140°37'510.0
2018-Jan-12 11:30N 41°29' E 140°42'510.1
2018-Jan-12 11:00N 41°32' E 140°48'5 9.3
2018-Jan-12 10:30N 41°35' E 140°52'4 8.0
2018-Jan-12 10:00N 41°35' E 140°58'510.3
2018-Jan-12 09:30N 41°33' E 141°04'510.9
2018-Jan-12 09:00N 41°30' E 141°11'510.6
2018-Jan-12 08:30N 41°28' E 141°17'611.6
2018-Jan-12 08:00N 41°25' E 141°24'1 0.3
2018-Jan-12 04:58N 41°25' E 141°25'0 0.0
2018-Jan-12 04:22N 41°25' E 141°25'0 0.1
2018-Jan-12 03:55N 41°25' E 141°25'0 0.0
2018-Jan-12 03:28N 41°25' E 141°25'0 0.0
2018-Jan-12 02:52N 41°25' E 141°25'0 0.1
2018-Jan-12 02:28N 41°25' E 141°25'0 0.1
2018-Jan-12 01:46N 41°25' E 141°25'0 0.0
2018-Jan-12 01:28N 41°25' E 141°25'0 0.0
2018-Jan-12 00:43N 41°25' E 141°25'0 0.1
2018-Jan-12 00:22N 41°25' E 141°25'0 0.0
2018-Jan-11 23:58N 41°25' E 141°25'0 0.0
2018-Jan-11 23:22N 41°25' E 141°25'0 0.0
2018-Jan-11 22:52N 41°25' E 141°25'0 0.0
2018-Jan-11 22:28N 41°25' E 141°25'0 0.0
2018-Jan-11 21:58N 41°25' E 141°25'0 0.1
2018-Jan-11 21:19N 41°25' E 141°25'0 0.1
2018-Jan-11 20:58N 41°25' E 141°25'0 0.1
2018-Jan-11 20:19N 41°25' E 141°25'0 0.0
2018-Jan-11 19:28N 41°25' E 141°25'0 0.0
2018-Jan-11 18:55N 41°25' E 141°25'0 0.0
2018-Jan-11 18:04N 41°25' E 141°25'0 0.0
2018-Jan-11 17:34N 41°25' E 141°25'0 0.0
2018-Jan-11 16:43N 41°25' E 141°25'0 0.0
2018-Jan-11 16:28N 41°25' E 141°25'0 0.0
2018-Jan-11 15:55N 41°25' E 141°25'0 0.0
2018-Jan-11 13:43N 41°25' E 141°25'0 0.0
2018-Jan-11 13:16N 41°25' E 141°25'0 0.0
2018-Jan-11 12:49N 41°25' E 141°25'0 0.0
2018-Jan-11 09:13N 41°25' E 141°25'0 0.0
2018-Jan-11 08:58N 41°25' E 141°25'0 0.0
2018-Jan-11 08:07N 41°25' E 141°25'0 0.0
2018-Jan-11 07:43N 41°25' E 141°25'0 0.0
2018-Jan-11 07:25N 41°25' E 141°25'0 0.0
2018-Jan-11 05:40N 41°25' E 141°25'0 0.1
2018-Jan-11 05:19N 41°25' E 141°25'0 0.0
2018-Jan-11 04:22N 41°25' E 141°25'0 0.1
2018-Jan-11 03:49N 41°25' E 141°25'0 0.2
2018-Jan-11 03:25N 41°25' E 141°25'0 0.0
2018-Jan-11 02:56N 41°25' E 141°25'0 0.0
2018-Jan-11 02:28N 41°25' E 141°25'0 0.0
2018-Jan-11 02:00N 41°25' E 141°25'1 0.4
2018-Jan-10 23:19N 41°25' E 141°26'1 3.7
2018-Jan-10 22:58N 41°25' E 141°24'2 4.2
2018-Jan-10 22:28N 41°27' E 141°26'4 9.6
2018-Jan-10 22:00N 41°25' E 141°32'712.6
2018-Jan-10 21:29N 41°19' E 141°33'612.7
2018-Jan-10 21:00N 41°13' E 141°33'2113.0
2018-Jan-10 19:25N 40°52' E 141°32'  
Track history (hours):
 
Tides and Currents Weather Stations Pressure Air Temp Water Temp Dewpoint Dewpoint Depression Visibility Wind Speed Wind Dir Waves Ship Positions

Yuuseimaru

Last reported at 2018-Jan-20 01:01 UTC. Time now 2018-Jan-20 05:21 UTC.
Position N 41°25' E 141°26'.

Length 74 m; draft 4.2 m.

Type: Cargo ship. MMSI: 431006982.

Date/timePositionNaut miles runAvg speedWind from/ knotsBaromVisibWave heightAir tempDewpointWater temp
2018-Jan-20 01:01N 41°25' E 141°26'0 0.0
2018-Jan-20 00:55N 41°25' E 141°26'0 0.0
2018-Jan-20 00:28N 41°25' E 141°26'0 0.0
2018-Jan-19 23:58N 41°25' E 141°26'0 0.0
2018-Jan-19 23:28N 41°25' E 141°26'0 0.0
2018-Jan-19 22:55N 41°25' E 141°26'0 0.4
2018-Jan-19 22:30N 41°25' E 141°26'1 1.3
2018-Jan-19 21:55N 41°25' E 141°25'0 0.0
2018-Jan-19 21:28N 41°25' E 141°25'0 0.0
2018-Jan-19 20:58N 41°25' E 141°25'0 0.0
2018-Jan-19 20:16N 41°25' E 141°25'0 0.0
2018-Jan-19 19:49N 41°25' E 141°25'0 0.0
2018-Jan-19 19:28N 41°25' E 141°25'2 3.6
2018-Jan-19 19:00N 41°26' E 141°23'613.3
2018-Jan-19 18:30N 41°28' E 141°15'714.5
2018-Jan-19 18:01N 41°31' E 141°06'714.0
2018-Jan-19 17:29N 41°35' E 140°57'613.2
2018-Jan-19 17:00N 41°33' E 140°49'714.3
2018-Jan-19 16:30N 41°29' E 140°42'714.3
2018-Jan-19 16:00N 41°24' E 140°34'714.3
2018-Jan-19 15:29N 41°20' E 140°26'2314.0
2018-Jan-19 13:51N 41°02' E 140°08'512.7
2018-Jan-19 13:28N 40°57' E 140°05'  
2018-Jan-12 13:55N 41°16' E 140°18'3 7.3
2018-Jan-12 13:30N 41°18' E 140°22'4 8.5
2018-Jan-12 13:00N 41°20' E 140°26'5 9.2
2018-Jan-12 12:30N 41°23' E 140°31'5 9.8
2018-Jan-12 12:00N 41°26' E 140°37'510.0
2018-Jan-12 11:30N 41°29' E 140°42'510.1
2018-Jan-12 11:00N 41°32' E 140°48'5 9.3
2018-Jan-12 10:30N 41°35' E 140°52'4 8.0
2018-Jan-12 10:00N 41°35' E 140°58'510.3
2018-Jan-12 09:30N 41°33' E 141°04'510.9
2018-Jan-12 09:00N 41°30' E 141°11'510.6
2018-Jan-12 08:30N 41°28' E 141°17'611.6
2018-Jan-12 08:00N 41°25' E 141°24'1 0.3
2018-Jan-12 04:58N 41°25' E 141°25'0 0.0
2018-Jan-12 04:22N 41°25' E 141°25'0 0.1
2018-Jan-12 03:55N 41°25' E 141°25'0 0.0
2018-Jan-12 03:28N 41°25' E 141°25'0 0.0
2018-Jan-12 02:52N 41°25' E 141°25'0 0.1
2018-Jan-12 02:28N 41°25' E 141°25'0 0.1
2018-Jan-12 01:46N 41°25' E 141°25'0 0.0
2018-Jan-12 01:28N 41°25' E 141°25'0 0.0
2018-Jan-12 00:43N 41°25' E 141°25'0 0.1
2018-Jan-12 00:22N 41°25' E 141°25'0 0.0
2018-Jan-11 23:58N 41°25' E 141°25'0 0.0
2018-Jan-11 23:22N 41°25' E 141°25'0 0.0
2018-Jan-11 22:52N 41°25' E 141°25'0 0.0
2018-Jan-11 22:28N 41°25' E 141°25'0 0.0
2018-Jan-11 21:58N 41°25' E 141°25'0 0.1
2018-Jan-11 21:19N 41°25' E 141°25'0 0.1
2018-Jan-11 20:58N 41°25' E 141°25'0 0.1
2018-Jan-11 20:19N 41°25' E 141°25'0 0.0
2018-Jan-11 19:28N 41°25' E 141°25'0 0.0
2018-Jan-11 18:55N 41°25' E 141°25'0 0.0
2018-Jan-11 18:04N 41°25' E 141°25'0 0.0
2018-Jan-11 17:34N 41°25' E 141°25'0 0.0
2018-Jan-11 16:43N 41°25' E 141°25'0 0.0
2018-Jan-11 16:28N 41°25' E 141°25'0 0.0
2018-Jan-11 15:55N 41°25' E 141°25'0 0.0
2018-Jan-11 13:43N 41°25' E 141°25'0 0.0
2018-Jan-11 13:16N 41°25' E 141°25'0 0.0
2018-Jan-11 12:49N 41°25' E 141°25'0 0.0
2018-Jan-11 09:13N 41°25' E 141°25'0 0.0
2018-Jan-11 08:58N 41°25' E 141°25'0 0.0
2018-Jan-11 08:07N 41°25' E 141°25'0 0.0
2018-Jan-11 07:43N 41°25' E 141°25'0 0.0
2018-Jan-11 07:25N 41°25' E 141°25'0 0.0
2018-Jan-11 05:40N 41°25' E 141°25'0 0.1
2018-Jan-11 05:19N 41°25' E 141°25'0 0.0
2018-Jan-11 04:22N 41°25' E 141°25'0 0.1
2018-Jan-11 03:49N 41°25' E 141°25'0 0.2
2018-Jan-11 03:25N 41°25' E 141°25'0 0.0
2018-Jan-11 02:56N 41°25' E 141°25'0 0.0
2018-Jan-11 02:28N 41°25' E 141°25'0 0.0
2018-Jan-11 02:00N 41°25' E 141°25'1 0.4
2018-Jan-10 23:19N 41°25' E 141°26'1 3.7
2018-Jan-10 22:58N 41°25' E 141°24'2 4.2
2018-Jan-10 22:28N 41°27' E 141°26'4 9.6
2018-Jan-10 22:00N 41°25' E 141°32'712.6
2018-Jan-10 21:29N 41°19' E 141°33'612.7
2018-Jan-10 21:00N 41°13' E 141°33'2113.0
2018-Jan-10 19:25N 40°52' E 141°32'  

Dump ship's entire track history